This is the latest recevied weather packets stored in our database for station/object IZ1UQG-2. If no packets are shown the sender has not sent any weather packets the latest 10 day(s).
| Time | Temp. | Humidity | Pressure | Rain* | Wind** | Luminosity | Snow |
|---|---|---|---|---|---|---|---|
| 1777520164 | 12.78° C | 90% | 1020.2 hPa | 2.29 mm | - | 0 W/m² | - |
| 1777519744 | 13.33° C | 90% | 1020 hPa | 1.52 mm | - | 0 W/m² | - |
| 1777518844 | 13.33° C | 90% | 1020 hPa | 1.27 mm | - | 0 W/m² | - |
| 1777518724 | 13.33° C | 90% | 1020 hPa | 1.27 mm | - | 0 W/m² | - |
| 1777518304 | 13.33° C | 90% | 1020 hPa | 1.02 mm | - | 0 W/m² | - |
| 1777517584 | 13.33° C | 88% | 1019.9 hPa | 0.76 mm | - | 0 W/m² | - |
| 1777517525 | 13.33° C | 88% | 1019.9 hPa | 0.76 mm | - | 0 W/m² | - |
| 1777516864 | 13.89° C | 87% | 1019.7 hPa | 0.51 mm | - | 0 W/m² | - |
| 1777516805 | 13.89° C | 87% | 1019.6 hPa | 0.51 mm | - | 0 W/m² | - |
| 1777516504 | 13.89° C | 86% | 1019.7 hPa | 0.51 mm | - | 0 W/m² | - |
| 1777515963 | 13.89° C | 87% | 1019.8 hPa | 0.25 mm | - | 0 W/m² | - |
| 1777515605 | 14.44° C | 87% | 1019.7 hPa | 0.25 mm | - | 0 W/m² | - |
| 1777515364 | 14.44° C | 86% | 1019.6 hPa | 0.25 mm | - | 0 W/m² | - |
| 1777514465 | 13.89° C | 86% | 1019.6 hPa | 0 mm | - | 0 W/m² | - |
| 1777514044 | 14.44° C | 86% | 1019.5 hPa | 0 mm | - | 0 W/m² | - |
| 1777513984 | 14.44° C | 86% | 1019.5 hPa | 0 mm | - | 0 W/m² | - |
| 1777513684 | 14.44° C | 87% | 1019.4 hPa | 0 mm | - | 0 W/m² | - |
| 1777513504 | 13.89° C | 87% | 1019.5 hPa | 0 mm | - | 0 W/m² | - |
| 1777513324 | 13.89° C | 87% | 1019.5 hPa | 0 mm | - | 0 W/m² | - |
| 1777512966 | 13.89° C | 87% | 1019.4 hPa | 0 mm | - | 0 W/m² | - |
| 1777512724 | 13.33° C | 87% | 1019.4 hPa | 0.25 mm | - | 0 W/m² | - |
| 1777512664 | 13.33° C | 88% | 1019.4 hPa | 0.25 mm | - | 0 W/m² | - |
| 1777512609 | 13.33° C | 88% | 1019.4 hPa | 0.25 mm | - | 0 W/m² | - |
| 1777512544 | 13.33° C | 88% | 1019.3 hPa | 0.25 mm | - | 0 W/m² | - |
| 1777512064 | 13.89° C | 88% | 1019.3 hPa | 0.25 mm | - | 0 W/m² | - |
* Rain latest hour (hover to see other rain measurements)
** Current wind speed in m/s (hover to see current wind gust speed)